Time;durP1;ratioP1;P1;durP2;ratioP2;P2;SDS_P1;SDS_P2;PMS_P1;PMS_P2;Temp;Humidity;BMP_temperature;BMP_pressure;BME280_temperature;BME280_humidity;BME280_pressure;Samples;Min_cycle;Max_cycle;Signal;HPM_P1;HPM_P2
2022/11/26 00:00:44;;;;;;;22.23;10.13;;;;;;;4.80;100.00;102500.97;5051782;28;20017;-70
2022/11/26 00:03:11;;;;;;;22.67;10.13;;;;;;;4.77;100.00;102503.84;5051715;28;20036;-70
2022/11/26 00:05:37;;;;;;;25.40;9.88;;;;;;;4.78;100.00;102502.88;5051737;28;20032;-69
2022/11/26 00:08:04;;;;;;;18.20;8.00;;;;;;;4.78;100.00;102504.69;5051497;28;20045;-69
2022/11/26 00:10:34;;;;;;;23.25;9.10;;;;;;;4.75;100.00;102507.56;5051683;28;20025;-70
2022/11/26 00:12:59;;;;;;;20.80;10.18;;;;;;;4.70;100.00;102504.44;5051672;28;20029;-69
2022/11/26 00:15:29;;;;;;;24.70;9.85;;;;;;;4.75;100.00;102521.63;5051484;28;20519;-69
2022/11/26 00:17:54;;;;;;;19.50;8.88;;;;;;;4.68;100.00;102509.81;5051488;28;20476;-70
2022/11/26 00:20:28;;;;;;;20.30;10.23;;;;;;;4.74;100.00;102527.00;5051237;28;20036;-69
2022/11/26 00:22:57;;;;;;;22.05;9.63;;;;;;;4.73;100.00;102531.47;5049853;28;20052;-69
2022/11/26 00:25:25;;;;;;;20.33;11.23;;;;;;;4.71;100.00;102524.59;5051161;28;20028;-69
2022/11/26 00:27:54;;;;;;;26.50;9.65;;;;;;;4.66;100.00;102524.94;5051291;28;20483;-70
2022/11/26 00:30:24;;;;;;;21.27;8.38;;;;;;;4.65;100.00;102525.09;5051328;28;20074;-69
2022/11/26 00:32:50;;;;;;;18.88;9.32;;;;;;;4.63;100.00;102527.00;5049743;28;20491;-70
2022/11/26 00:35:16;;;;;;;19.63;9.73;;;;;;;4.60;100.00;102530.72;5051243;28;20097;-69
2022/11/26 00:37:52;;;;;;;20.75;9.45;;;;;;;4.57;100.00;102525.66;5051058;28;20571;-70
2022/11/26 00:40:21;;;;;;;24.50;11.23;;;;;;;4.55;100.00;102522.28;5051079;28;20036;-69
2022/11/26 00:42:46;;;;;;;19.52;10.27;;;;;;;4.53;100.00;102521.56;5049259;28;20036;-70
2022/11/26 00:45:21;;;;;;;22.48;10.60;;;;;;;4.51;100.00;102523.50;5050019;28;20040;-70
2022/11/26 00:47:48;;;;;;;22.70;9.10;;;;;;;4.50;100.00;102529.72;5050192;28;20035;-70
2022/11/26 00:50:17;;;;;;;19.77;9.80;;;;;;;4.46;100.00;102529.13;5050762;28;20365;-69
2022/11/26 00:52:43;;;;;;;20.10;9.65;;;;;;;4.44;100.00;102533.66;5050836;28;20472;-70
2022/11/26 00:55:18;;;;;;;15.48;7.95;;;;;;;4.41;100.00;102533.91;5050715;28;20029;-69
2022/11/26 00:57:43;;;;;;;21.05;8.10;;;;;;;4.36;100.00;102525.47;5050172;28;20021;-70
2022/11/26 01:00:17;;;;;;;18.52;8.45;;;;;;;4.36;100.00;102534.22;5049997;28;20029;-70
2022/11/26 01:02:43;;;;;;;22.30;8.48;;;;;;;4.33;100.00;102531.81;5050787;28;20033;-69
2022/11/26 01:05:08;;;;;;;17.88;8.65;;;;;;;4.26;100.00;102527.94;5050591;28;20047;-70
2022/11/26 01:07:34;;;;;;;23.90;8.35;;;;;;;4.27;100.00;102531.41;5049286;28;20123;-70
2022/11/26 01:10:00;;;;;;;17.45;8.27;;;;;;;4.25;100.00;102541.28;5050520;28;20045;-70
2022/11/26 01:12:25;;;;;;;20.08;8.23;;;;;;;4.20;100.00;102548.69;5050362;28;20041;-70
2022/11/26 01:14:50;;;;;;;19.70;9.32;;;;;;;4.14;100.00;102550.00;5050307;28;20392;-70
2022/11/26 01:17:16;;;;;;;19.02;9.63;;;;;;;4.16;100.00;102551.53;5050371;28;20036;-70
2022/11/26 01:19:41;;;;;;;22.17;9.80;;;;;;;4.15;100.00;102547.22;5050305;28;20111;-70
2022/11/26 01:22:18;;;;;;;20.30;9.05;;;;;;;4.13;100.00;102545.66;5050209;28;20028;-70
2022/11/26 01:24:44;;;;;;;17.95;8.77;;;;;;;4.11;100.00;102543.16;5050043;28;20082;-69
2022/11/26 01:27:11;;;;;;;18.50;8.65;;;;;;;4.11;100.00;102555.47;5050179;28;20037;-69
2022/11/26 01:29:36;;;;;;;19.10;9.68;;;;;;;4.09;100.00;102536.28;5049651;28;20481;-69
2022/11/26 01:32:02;;;;;;;23.02;10.52;;;;;;;4.00;100.00;102535.16;5048815;28;20070;-70
2022/11/26 01:34:27;;;;;;;19.33;9.32;;;;;;;4.07;100.00;102548.75;5050076;28;20030;-69
2022/11/26 01:36:53;;;;;;;19.40;10.73;;;;;;;4.04;100.00;102535.78;5049613;28;20029;-69
2022/11/26 01:39:21;;;;;;;23.33;10.07;;;;;;;4.02;100.00;102543.81;5049886;28;20083;-69
2022/11/26 01:41:51;;;;;;;21.67;9.20;;;;;;;3.99;100.00;102536.09;5049849;28;20032;-70
2022/11/26 01:44:23;;;;;;;16.52;7.95;;;;;;;4.01;100.00;102543.91;5048447;28;20029;-69
2022/11/26 01:46:50;;;;;;;19.85;11.55;;;;;;;3.98;100.00;102536.22;5048108;28;20431;-70
2022/11/26 01:49:17;;;;;;;26.08;8.93;;;;;;;4.00;100.00;102532.50;5049581;28;20605;-70
2022/11/26 01:51:44;;;;;;;20.95;11.50;;;;;;;3.97;100.00;102542.47;5044139;28;20106;-69
2022/11/26 01:54:10;;;;;;;23.42;11.35;;;;;;;3.95;100.00;102548.66;5049580;28;20025;-70
2022/11/26 01:56:47;;;;;;;17.25;8.80;;;;;;;3.94;100.00;102554.06;5049762;28;20039;-69
2022/11/26 01:59:28;;;;;;;21.10;8.80;;;;;;;3.82;100.00;102539.97;5048371;28;20075;-69
2022/11/26 02:01:57;;;;;;;21.13;10.85;;;;;;;3.87;100.00;102551.03;5049596;28;20027;-69
2022/11/26 02:04:36;;;;;;;21.00;9.93;;;;;;;3.86;100.00;102567.81;5049462;28;20472;-70
2022/11/26 02:07:02;;;;;;;20.80;10.00;;;;;;;3.79;100.00;102553.38;5049674;28;20032;-69
2022/11/26 02:09:28;;;;;;;27.38;9.98;;;;;;;3.85;100.00;102562.66;5049681;28;20040;-69
2022/11/26 02:11:54;;;;;;;22.23;9.73;;;;;;;3.85;100.00;102560.00;5049555;28;20028;-69
2022/11/26 02:14:27;;;;;;;20.30;9.93;;;;;;;3.79;100.00;102548.09;5049407;28;20072;-70
2022/11/26 02:17:00;;;;;;;20.38;9.98;;;;;;;3.83;100.00;102557.50;5049500;28;20032;-69
2022/11/26 02:19:34;;;;;;;22.73;10.13;;;;;;;3.83;100.00;102573.34;5049453;28;20025;-69
2022/11/26 02:22:15;;;;;;;24.15;10.30;;;;;;;3.84;100.00;102574.16;5049465;28;20027;-69
2022/11/26 02:24:51;;;;;;;21.88;10.27;;;;;;;3.79;100.00;102566.56;5049449;28;20036;-69
2022/11/26 02:27:38;;;;;;;23.90;10.52;;;;;;;3.81;100.00;102577.03;5049502;28;20037;-69
2022/11/26 02:30:07;;;;;;;26.25;11.75;;;;;;;3.81;100.00;102590.22;5049337;28;20104;-69
2022/11/26 02:32:51;;;;;;;19.02;10.35;;;;;;;3.78;100.00;102583.38;5049364;28;20483;-70
2022/11/26 02:35:22;;;;;;;19.23;10.38;;;;;;;3.80;100.00;102594.66;5049356;28;20415;-69
2022/11/26 02:37:54;;;;;;;22.33;10.35;;;;;;;3.75;100.00;102588.88;5048933;28;20045;-69
2022/11/26 02:40:20;;;;;;;18.92;9.23;;;;;;;3.78;100.00;102591.28;5049214;28;20029;-69
2022/11/26 02:42:46;;;;;;;22.02;10.13;;;;;;;3.73;100.00;102575.78;5049305;28;20029;-69
2022/11/26 02:45:23;;;;;;;21.58;12.60;;;;;;;3.77;100.00;102588.75;5049099;28;20025;-69
2022/11/26 02:47:52;;;;;;;24.67;11.25;;;;;;;3.78;100.00;102585.19;5048517;28;20035;-69
2022/11/26 02:50:24;;;;;;;23.73;9.55;;;;;;;3.74;100.00;102576.63;5048572;28;20078;-69
2022/11/26 02:52:51;;;;;;;24.88;10.32;;;;;;;3.74;100.00;102579.25;5049238;28;20021;-69
2022/11/26 02:55:21;;;;;;;23.25;9.85;;;;;;;3.72;100.00;102583.78;5049028;28;20029;-69
2022/11/26 02:57:49;;;;;;;20.92;11.07;;;;;;;3.69;100.00;102592.78;5049263;28;20115;-69
2022/11/26 03:00:16;;;;;;;23.52;10.77;;;;;;;3.67;100.00;102585.94;5048895;28;20029;-69
2022/11/26 03:03:09;;;;;;;28.27;12.88;;;;;;;3.66;100.00;102602.69;5048493;28;20029;-69
2022/11/26 03:05:37;;;;;;;24.05;10.57;;;;;;;3.57;100.00;102593.66;5048394;28;20045;-69
2022/11/26 03:08:05;;;;;;;20.40;9.80;;;;;;;3.60;100.00;102603.16;5049013;28;20634;-69
2022/11/26 03:10:31;;;;;;;18.45;9.15;;;;;;;3.60;100.00;102609.25;5050498;28;20025;-69
2022/11/26 03:12:57;;;;;;;22.52;10.35;;;;;;;3.59;100.00;102609.34;5052710;28;20040;-69
2022/11/26 03:15:22;;;;;;;21.42;10.65;;;;;;;3.58;100.00;102603.25;5052415;28;20611;-70
2022/11/26 03:17:48;;;;;;;27.15;11.65;;;;;;;3.57;100.00;102608.63;5052706;28;20029;-69
2022/11/26 03:20:14;;;;;;;23.23;9.82;;;;;;;3.58;100.00;102616.44;5052645;28;20096;-69
2022/11/26 03:22:39;;;;;;;25.05;9.90;;;;;;;3.54;100.00;102603.56;5052350;28;20098;-69
2022/11/26 03:25:05;;;;;;;20.88;10.57;;;;;;;3.51;100.00;102615.16;5052706;28;20025;-69
2022/11/26 03:27:31;;;;;;;20.27;10.18;;;;;;;3.49;100.00;102617.94;5054866;28;20028;-69
2022/11/26 03:29:56;;;;;;;25.02;12.18;;;;;;;3.48;100.00;102621.53;5054147;28;20396;-69
2022/11/26 03:32:21;;;;;;;25.25;10.70;;;;;;;3.47;100.00;102616.34;5052430;28;20116;-70
2022/11/26 03:34:47;;;;;;;20.10;10.00;;;;;;;3.47;100.00;102630.38;5052338;28;20040;-69
2022/11/26 03:37:12;;;;;;;22.33;11.57;;;;;;;3.47;100.00;102629.53;5052320;28;20029;-69
2022/11/26 03:39:38;;;;;;;21.40;10.45;;;;;;;3.45;100.00;102628.78;5052148;28;20054;-69
2022/11/26 03:42:03;;;;;;;20.75;9.80;;;;;;;3.44;100.00;102632.38;5052227;28;20032;-69
2022/11/26 03:44:29;;;;;;;21.80;9.65;;;;;;;3.45;100.00;102631.41;5051919;28;20083;-69
2022/11/26 03:46:54;;;;;;;20.35;9.18;;;;;;;3.44;100.00;102625.31;5052115;28;20052;-69
2022/11/26 03:49:19;;;;;;;18.98;9.82;;;;;;;3.43;100.00;102622.78;5050877;28;20111;-69
2022/11/26 03:51:45;;;;;;;21.42;10.20;;;;;;;3.41;100.00;102635.25;5051609;28;20036;-69
2022/11/26 03:54:10;;;;;;;21.55;10.05;;;;;;;3.44;100.00;102633.22;5051790;28;20094;-69
2022/11/26 03:56:35;;;;;;;19.33;9.15;;;;;;;3.41;100.00;102628.16;5051830;28;20064;-69
2022/11/26 03:59:01;;;;;;;20.95;9.65;;;;;;;3.45;100.00;102639.34;5051850;28;20025;-69
2022/11/26 04:01:27;;;;;;;23.10;10.15;;;;;;;3.45;100.00;102644.59;5051892;28;20025;-69
2022/11/26 04:03:52;;;;;;;23.15;9.82;;;;;;;3.45;100.00;102645.44;5051148;28;20029;-69
2022/11/26 04:06:17;;;;;;;20.48;10.05;;;;;;;3.45;100.00;102641.97;5051121;28;20053;-69
2022/11/26 04:08:43;;;;;;;24.30;10.80;;;;;;;3.44;100.00;102643.78;5050180;28;20530;-69
2022/11/26 04:11:08;;;;;;;19.60;9.52;;;;;;;3.40;100.00;102631.72;5050682;28;20029;-69
2022/11/26 04:13:33;;;;;;;22.95;9.55;;;;;;;3.41;100.00;102632.59;5051392;28;20033;-69
2022/11/26 04:15:59;;;;;;;25.50;9.38;;;;;;;3.44;100.00;102641.13;5049920;28;20409;-69
2022/11/26 04:18:24;;;;;;;25.17;11.38;;;;;;;3.40;100.00;102644.09;5050194;28;20045;-69
2022/11/26 04:20:50;;;;;;;26.40;10.52;;;;;;;3.42;100.00;102655.38;5051027;28;20039;-69
2022/11/26 04:23:15;;;;;;;19.85;10.18;;;;;;;3.42;100.00;102653.59;5050689;28;20048;-69
2022/11/26 04:25:40;;;;;;;22.55;9.02;;;;;;;3.41;100.00;102666.88;5051522;28;20040;-69
2022/11/26 04:28:05;;;;;;;17.63;9.75;;;;;;;3.32;100.00;102651.69;5051234;28;20040;-69
2022/11/26 04:30:31;;;;;;;18.77;10.15;;;;;;;3.37;100.00;102660.13;5049987;28;20037;-69
2022/11/26 04:32:56;;;;;;;22.10;9.82;;;;;;;3.37;100.00;102668.03;5033277;28;20032;-69
2022/11/26 04:35:22;;;;;;;24.65;10.35;;;;;;;3.32;100.00;102659.59;5051277;28;20069;-69
2022/11/26 04:37:47;;;;;;;27.63;10.07;;;;;;;3.37;100.00;102681.22;5051132;28;20078;-69
2022/11/26 04:40:13;;;;;;;19.25;8.88;;;;;;;3.32;100.00;102675.41;5051169;28;20016;-69
2022/11/26 04:42:38;;;;;;;21.35;10.65;;;;;;;3.32;100.00;102676.25;5050907;28;20146;-69
2022/11/26 04:45:04;;;;;;;20.15;8.65;;;;;;;3.34;100.00;102674.34;5049471;28;20792;-69
2022/11/26 04:47:30;;;;;;;19.13;8.73;;;;;;;3.33;100.00;102677.97;5050932;28;20183;-70
2022/11/26 04:49:55;;;;;;;25.48;10.68;;;;;;;3.32;100.00;102670.97;5050965;28;20078;-69
2022/11/26 04:52:20;;;;;;;20.17;9.27;;;;;;;3.33;100.00;102664.78;5050670;28;20029;-70
2022/11/26 04:54:46;;;;;;;22.17;9.50;;;;;;;3.32;100.00;102665.69;5050679;28;20033;-69
2022/11/26 04:57:11;;;;;;;24.08;10.65;;;;;;;3.32;100.00;102662.22;5049547;28;20033;-69
2022/11/26 04:59:36;;;;;;;20.67;9.50;;;;;;;3.34;100.00;102678.78;5050643;28;20060;-69
2022/11/26 05:02:02;;;;;;;20.85;8.73;;;;;;;3.27;100.00;102663.41;5050652;28;20074;-69
2022/11/26 05:04:28;;;;;;;17.35;9.40;;;;;;;3.33;100.00;102671.81;5050436;28;20064;-69
2022/11/26 05:06:54;;;;;;;21.50;8.98;;;;;;;3.33;100.00;102677.09;5050199;28;20025;-69
2022/11/26 05:09:19;;;;;;;25.13;8.80;;;;;;;3.29;100.00;102679.09;5050053;28;20056;-69
2022/11/26 05:11:45;;;;;;;20.67;9.85;;;;;;;3.29;100.00;102673.81;5050341;28;20056;-69
2022/11/26 05:14:10;;;;;;;21.00;8.32;;;;;;;3.27;100.00;102670.44;5050189;28;20123;-69
2022/11/26 05:16:36;;;;;;;21.42;9.32;;;;;;;3.27;100.00;102675.72;5050484;28;20182;-69
2022/11/26 05:19:01;;;;;;;18.08;8.80;;;;;;;3.30;100.00;102678.13;5050692;28;20040;-69
2022/11/26 05:21:27;;;;;;;18.90;8.45;;;;;;;3.26;100.00;102679.31;5048924;28;20040;-69
2022/11/26 05:23:52;;;;;;;20.27;8.02;;;;;;;3.28;100.00;102685.34;5050077;28;20033;-69
2022/11/26 05:26:17;;;;;;;24.25;10.70;;;;;;;3.23;100.00;102680.38;5050167;28;20384;-69
2022/11/26 05:28:43;;;;;;;23.52;8.55;;;;;;;3.17;100.00;102675.50;5049954;28;20039;-69
2022/11/26 05:31:08;;;;;;;22.85;9.10;;;;;;;3.22;100.00;102693.63;5049753;28;20029;-69
2022/11/26 05:33:33;;;;;;;18.92;8.23;;;;;;;3.21;100.00;102687.53;5049566;28;20017;-69
2022/11/26 05:35:59;;;;;;;24.95;12.30;;;;;;;3.16;100.00;102684.34;5050115;28;20088;-69
2022/11/26 05:38:25;;;;;;;21.13;8.82;;;;;;;3.19;100.00;102699.13;5050052;28;20031;-69
2022/11/26 05:40:50;;;;;;;23.83;11.57;;;;;;;3.15;100.00;102690.59;5049971;28;20483;-69
2022/11/26 05:43:16;;;;;;;21.30;10.38;;;;;;;3.14;100.00;102685.41;5049853;28;20036;-69
2022/11/26 05:45:41;;;;;;;25.75;8.25;;;;;;;3.14;100.00;102690.66;5049854;28;20139;-69
2022/11/26 05:48:06;;;;;;;23.38;9.75;;;;;;;3.15;100.00;102692.38;5049881;28;20025;-69
2022/11/26 05:50:32;;;;;;;19.75;9.88;;;;;;;3.14;100.00;102690.66;5050592;28;20117;-69
2022/11/26 05:52:58;;;;;;;22.38;9.48;;;;;;;3.11;100.00;102697.00;5052150;28;20110;-69
2022/11/26 05:55:24;;;;;;;28.85;11.07;;;;;;;3.06;100.00;102692.03;5048990;28;20036;-69
2022/11/26 05:57:49;;;;;;;25.30;11.18;;;;;;;3.05;100.00;102692.97;5049609;28;20039;-69
2022/11/26 06:00:15;;;;;;;28.05;13.15;;;;;;;3.05;100.00;102706.16;5049724;28;20032;-69
2022/11/26 06:02:40;;;;;;;21.30;9.35;;;;;;;3.04;100.00;102708.91;5049575;28;20033;-69
2022/11/26 06:05:07;;;;;;;26.40;11.13;;;;;;;3.04;100.00;102722.09;5049680;28;20068;-69
2022/11/26 06:07:32;;;;;;;25.08;9.60;;;;;;;3.02;100.00;102716.91;5049486;28;20119;-69
2022/11/26 06:09:57;;;;;;;23.42;11.80;;;;;;;2.94;100.00;102711.31;5048849;28;20249;-69
2022/11/26 06:12:23;;;;;;;26.10;10.63;;;;;;;2.98;100.00;102715.41;5049513;28;20033;-69
2022/11/26 06:14:48;;;;;;;23.80;10.55;;;;;;;2.97;100.00;102720.81;5049232;28;20052;-69
2022/11/26 06:17:14;;;;;;;23.63;11.25;;;;;;;2.95;100.00;102707.72;5047748;28;20071;-69
2022/11/26 06:19:39;;;;;;;25.52;13.02;;;;;;;2.98;100.00;102725.09;5049142;28;20431;-69
2022/11/26 06:22:05;;;;;;;31.20;13.45;;;;;;;2.94;100.00;102728.91;5048227;28;20076;-71
2022/11/26 06:24:30;;;;;;;24.25;11.88;;;;;;;2.96;100.00;102727.88;5049355;28;20032;-69
2022/11/26 06:26:56;;;;;;;25.30;11.52;;;;;;;2.95;100.00;102735.88;5031834;28;20398;-69
2022/11/26 06:29:21;;;;;;;33.70;13.35;;;;;;;2.94;100.00;102735.03;5049324;28;20037;-69
2022/11/26 06:31:47;;;;;;;25.80;11.98;;;;;;;2.94;100.00;102728.91;5049471;28;20036;-69
2022/11/26 06:34:13;;;;;;;25.35;11.80;;;;;;;2.89;100.00;102721.28;5049311;28;20032;-69
2022/11/26 06:36:39;;;;;;;22.50;11.55;;;;;;;2.94;100.00;102742.09;5049293;28;20043;-69
2022/11/26 06:39:04;;;;;;;25.17;9.95;;;;;;;2.93;100.00;102746.50;5048611;28;20104;-69
2022/11/26 06:41:29;;;;;;;25.20;12.77;;;;;;;2.91;100.00;102737.88;5049255;28;20029;-69
2022/11/26 06:43:55;;;;;;;25.20;12.35;;;;;;;2.94;100.00;102742.94;5047797;28;20047;-69
2022/11/26 06:46:20;;;;;;;28.08;12.80;;;;;;;2.94;100.00;102752.63;5052557;28;20120;-69
2022/11/26 06:48:45;;;;;;;25.10;13.35;;;;;;;2.93;100.00;102748.28;5053231;28;20128;-69
2022/11/26 06:51:14;;;;;;;30.20;13.90;;;;;;;2.97;100.00;102749.78;5051708;28;20127;-69
2022/11/26 06:53:39;;;;;;;31.83;12.85;;;;;;;2.98;100.00;102756.75;5053096;28;20021;-69
2022/11/26 06:56:09;;;;;;;26.38;12.35;;;;;;;3.00;100.00;102757.50;5051527;28;20043;-69
2022/11/26 06:58:34;;;;;;;29.95;13.73;;;;;;;2.99;100.00;102754.00;5052481;28;20064;-69
2022/11/26 07:01:07;;;;;;;29.25;13.00;;;;;;;2.97;100.00;102748.00;5052768;28;20060;-69
2022/11/26 07:03:32;;;;;;;24.15;12.32;;;;;;;3.00;100.00;102750.44;5051443;28;20568;-69
2022/11/26 07:05:57;;;;;;;24.27;12.13;;;;;;;3.00;100.00;102752.22;5051442;28;20128;-69
2022/11/26 07:08:22;;;;;;;27.55;13.88;;;;;;;2.96;100.00;102750.72;5052952;28;20056;-69
2022/11/26 07:10:48;;;;;;;29.00;15.07;;;;;;;3.02;100.00;102751.19;5051141;28;20098;-70
2022/11/26 07:13:13;;;;;;;29.55;14.43;;;;;;;3.02;100.00;102758.25;5052530;28;20025;-69
2022/11/26 07:15:39;;;;;;;28.17;15.73;;;;;;;3.04;100.00;102762.47;5051179;28;20056;-69
2022/11/26 07:18:04;;;;;;;29.80;15.43;;;;;;;3.02;100.00;102756.44;5052627;28;20044;-69
2022/11/26 07:20:29;;;;;;;32.28;14.32;;;;;;;3.01;100.00;102767.94;5052283;28;20033;-70
2022/11/26 07:22:55;;;;;;;29.83;15.35;;;;;;;3.05;100.00;102779.97;5052417;28;20111;-69
2022/11/26 07:25:20;;;;;;;25.00;12.68;;;;;;;3.03;100.00;102784.47;5052451;28;20052;-69
2022/11/26 07:27:46;;;;;;;33.42;14.32;;;;;;;3.03;100.00;102788.91;5052486;28;20021;-69
2022/11/26 07:30:12;;;;;;;27.38;13.85;;;;;;;3.03;100.00;102788.91;5052438;28;20525;-69
2022/11/26 07:32:38;;;;;;;25.00;14.95;;;;;;;3.04;100.00;102788.84;5052071;28;20040;-69
2022/11/26 07:35:04;;;;;;;27.10;13.35;;;;;;;3.04;100.00;102791.47;5052292;28;20025;-69
2022/11/26 07:37:32;;;;;;;31.10;14.55;;;;;;;3.08;100.00;102787.66;5034811;28;20123;-69
2022/11/26 07:39:57;;;;;;;27.23;14.02;;;;;;;3.11;100.00;102788.41;5052145;28;20035;-69
2022/11/26 07:42:22;;;;;;;27.67;15.38;;;;;;;3.13;100.00;102790.00;5051337;28;20033;-69
2022/11/26 07:44:48;;;;;;;27.20;14.63;;;;;;;3.13;100.00;102784.75;5052008;28;20029;-69
2022/11/26 07:47:13;;;;;;;27.30;13.50;;;;;;;3.15;100.00;102792.56;5052037;28;20020;-69
2022/11/26 07:49:38;;;;;;;28.98;14.07;;;;;;;3.17;100.00;102790.66;5051886;28;20029;-69
2022/11/26 07:52:04;;;;;;;23.48;11.70;;;;;;;3.21;100.00;102792.16;5052011;28;20025;-69
2022/11/26 07:54:29;;;;;;;26.55;13.65;;;;;;;3.22;100.00;102788.56;5051963;28;20147;-69
2022/11/26 07:56:55;;;;;;;26.13;13.55;;;;;;;3.26;100.00;102796.16;5032527;28;20037;-69
2022/11/26 07:59:21;;;;;;;29.15;13.98;;;;;;;3.26;100.00;102796.16;5051528;28;20067;-68
2022/11/26 08:01:47;;;;;;;28.65;12.13;;;;;;;3.31;100.00;102787.97;5051827;28;20041;-68
2022/11/26 08:04:12;;;;;;;29.55;16.27;;;;;;;3.33;100.00;102788.72;5051695;28;20048;-68
2022/11/26 08:06:37;;;;;;;28.33;14.25;;;;;;;3.35;100.00;102786.81;5051679;28;20029;-68
2022/11/26 08:09:03;;;;;;;28.17;13.68;;;;;;;3.39;100.00;102787.47;5051492;28;20032;-68
2022/11/26 08:11:31;;;;;;;20.83;10.90;;;;;;;3.43;100.00;102787.16;5051668;28;20025;-68
2022/11/26 08:14:06;;;;;;;29.38;11.65;;;;;;;3.45;100.00;102785.25;5051143;28;20021;-68
2022/11/26 08:16:32;;;;;;;26.85;15.05;;;;;;;3.54;100.00;102780.28;5050872;28;20049;-69
2022/11/26 08:19:00;;;;;;;30.52;12.88;;;;;;;3.62;100.00;102784.13;5047454;28;20094;-72
2022/11/26 08:21:25;;;;;;;22.65;10.23;;;;;;;3.72;100.00;102787.84;5045126;28;20029;-67
2022/11/26 08:23:52;;;;;;;24.25;11.02;;;;;;;3.82;100.00;102792.47;5045245;28;20033;-67
2022/11/26 08:26:17;;;;;;;26.15;10.73;;;;;;;3.86;100.00;102780.78;5045709;28;20460;-71
2022/11/26 08:28:45;;;;;;;23.88;9.88;;;;;;;4.02;100.00;102796.41;5045241;28;20035;-71
2022/11/26 08:31:12;;;;;;;24.98;10.68;;;;;;;4.13;100.00;102796.50;5045211;28;20058;-69
2022/11/26 08:33:37;;;;;;;24.42;10.98;;;;;;;4.27;100.00;102809.59;5043771;28;20456;-67
2022/11/26 08:36:04;;;;;;;24.13;9.70;;;;;;;4.36;100.00;102801.03;5045103;28;20028;-67
2022/11/26 08:38:29;;;;;;;27.10;10.80;;;;;;;4.41;100.00;102795.44;5045447;28;20029;-76
2022/11/26 08:40:59;;;;;;;26.48;10.15;;;;;;;4.54;100.00;102808.63;5044741;28;20370;-71
2022/11/26 08:43:24;;;;;;;23.75;11.23;;;;;;;4.59;100.00;102809.13;5044938;28;20029;-70
2022/11/26 08:45:55;;;;;;;21.40;12.00;;;;;;;4.64;100.00;102808.78;5048170;28;20368;-68
2022/11/26 08:48:21;;;;;;;20.85;9.45;;;;;;;4.67;100.00;102804.16;5050549;28;20029;-67
2022/11/26 08:50:46;;;;;;;21.63;9.23;;;;;;;4.71;100.00;102810.03;5050332;28;20029;-68
2022/11/26 08:53:11;;;;;;;23.25;9.05;;;;;;;4.76;100.00;102816.69;5033399;28;20086;-69
2022/11/26 08:55:37;;;;;;;25.13;9.40;;;;;;;4.80;100.00;102814.69;5050826;28;20044;-67
2022/11/26 08:58:02;;;;;;;20.15;8.85;;;;;;;4.81;100.00;102809.28;5049495;28;20037;-67
2022/11/26 09:00:27;;;;;;;20.52;8.93;;;;;;;4.88;100.00;102812.34;5050600;28;20158;-67
2022/11/26 09:02:53;;;;;;;20.67;10.07;;;;;;;4.92;100.00;102811.13;5050343;28;20040;-67
2022/11/26 09:05:18;;;;;;;29.58;10.35;;;;;;;4.94;100.00;102806.59;5050553;28;20502;-68
2022/11/26 09:07:43;;;;;;;20.85;8.93;;;;;;;5.02;100.00;102811.31;5049984;28;20495;-68
2022/11/26 09:10:09;;;;;;;20.08;9.30;;;;;;;5.06;100.00;102812.81;5050437;28;20567;-68
2022/11/26 09:12:35;;;;;;;23.58;9.15;;;;;;;5.11;100.00;102807.16;5050510;28;20025;-68
2022/11/26 09:15:00;;;;;;;18.63;8.15;;;;;;;5.10;100.00;102800.19;5050496;28;20112;-68
2022/11/26 09:17:25;;;;;;;17.90;8.70;;;;;;;5.23;100.00;102822.97;5049758;28;20053;-68
2022/11/26 09:19:51;;;;;;;19.13;8.38;;;;;;;5.27;100.00;102823.59;5050326;28;20527;-68
2022/11/26 09:22:16;;;;;;;23.92;9.82;;;;;;;5.36;100.00;102820.25;5049155;28;20472;-67
2022/11/26 09:24:41;;;;;;;14.77;7.43;;;;;;;5.41;100.00;102834.00;5048763;28;20488;-68
2022/11/26 09:27:10;;;;;;;21.27;6.80;;;;;;;5.45;100.00;102816.13;5048929;28;20025;-68
2022/11/26 09:29:35;;;;;;;27.30;8.25;;;;;;;5.52;100.00;102819.97;5050174;28;20029;-68
2022/11/26 09:32:00;;;;;;;17.55;7.53;;;;;;;5.60;100.00;102822.03;5050148;28;20391;-68
2022/11/26 09:34:26;;;;;;;19.38;7.45;;;;;;;5.64;100.00;102829.63;5050026;28;20037;-68
2022/11/26 09:36:51;;;;;;;19.95;9.15;;;;;;;5.67;100.00;102833.88;5050011;28;20025;-68
2022/11/26 09:39:17;;;;;;;22.60;7.22;;;;;;;5.71;100.00;102840.59;5050277;28;20468;-67
2022/11/26 09:41:53;;;;;;;24.02;8.38;;;;;;;5.74;100.00;102836.88;5049917;28;20060;-68
2022/11/26 09:45:01;;;;;;;31.85;9.73;;;;;;;5.79;100.00;102840.88;5049869;28;20032;-68
2022/11/26 09:47:35;;;;;;;17.27;6.45;;;;;;;5.83;100.00;102852.09;5047825;28;20126;-68
2022/11/26 09:50:09;;;;;;;20.10;7.57;;;;;;;5.87;100.00;102862.34;5049898;28;20226;-68
2022/11/26 09:52:53;;;;;;;17.83;6.93;;;;;;;5.91;100.00;102845.22;5049964;28;20432;-68
2022/11/26 09:55:23;;;;;;;15.27;6.20;;;;;;;5.92;100.00;102832.84;5049767;28;20044;-67
2022/11/26 09:58:20;;;;;;;23.30;7.80;;;;;;;6.03;100.00;102838.22;5049829;28;20494;-67
2022/11/26 10:00:48;;;;;;;22.52;7.57;;;;;;;6.13;100.00;102841.84;5048129;28;20025;-67
2022/11/26 10:03:29;;;;;;;20.75;7.97;;;;;;;6.25;100.00;102831.25;5048335;28;20431;-68
2022/11/26 10:06:00;;;;;;;21.20;7.63;;;;;;;6.34;100.00;102841.09;5049317;28;20043;-72
2022/11/26 10:08:31;;;;;;;;;;;;;;;6.42;100.00;102836.09;5049042;28;20558;-68
2022/11/26 10:11:09;;;;;;;21.10;7.88;;;;;;;6.43;100.00;102829.81;5048050;28;19962;-67
2022/11/26 10:14:02;;;;;;;19.15;6.38;;;;;;;6.49;100.00;102837.25;5049477;28;20074;-67
2022/11/26 10:16:50;;;;;;;27.65;6.45;;;;;;;6.56;100.00;102845.59;5048960;28;20029;-67
2022/11/26 10:19:36;;;;;;;13.98;6.70;;;;;;;6.58;100.00;102846.31;5047828;28;20491;-68
2022/11/26 10:22:24;;;;;;;20.48;7.93;;;;;;;6.60;100.00;102833.75;5049226;28;20074;-68
2022/11/26 10:24:50;;;;;;;18.27;7.32;;;;;;;6.61;100.00;102834.63;5049413;28;20064;-70
2022/11/26 10:27:18;;;;;;;23.27;7.78;;;;;;;6.63;100.00;102844.16;5049434;28;20071;-68
2022/11/26 10:29:50;;;;;;;14.48;6.45;;;;;;;6.68;100.00;102835.81;5049028;28;20116;-68
2022/11/26 10:32:47;;;;;;;21.60;7.65;;;;;;;6.78;100.00;102834.09;5048750;28;20029;-68
2022/11/26 10:35:18;;;;;;;17.20;6.70;;;;;;;6.82;100.00;102832.91;5040373;28;20613;-67
2022/11/26 10:37:44;;;;;;;16.00;5.80;;;;;;;6.84;100.00;102833.63;5049297;28;20040;-68
2022/11/26 10:40:19;;;;;;;15.10;6.93;;;;;;;6.90;100.00;102832.31;5049280;28;20032;-68
2022/11/26 10:42:55;;;;;;;15.60;6.07;;;;;;;6.95;100.00;102827.47;5049128;28;20043;-68
2022/11/26 10:45:24;;;;;;;18.90;6.20;;;;;;;7.01;100.00;102827.78;5047917;28;20082;-68
2022/11/26 10:47:49;;;;;;;18.50;6.57;;;;;;;7.08;100.00;102827.31;5049772;28;20040;-68
2022/11/26 10:50:21;;;;;;;16.92;5.95;;;;;;;7.19;100.00;102814.00;5042944;28;20033;-66
2022/11/26 10:52:47;;;;;;;29.10;8.73;;;;;;;7.32;100.00;102816.50;5042708;28;20067;-67
2022/11/26 10:55:20;;;;;;;14.85;6.22;;;;;;;7.44;100.00;102813.66;5043162;28;20033;-66
2022/11/26 10:58:02;;;;;;;15.93;6.20;;;;;;;7.55;100.00;102819.91;5043308;28;20024;-68
2022/11/26 11:00:30;;;;;;;21.50;8.02;;;;;;;7.66;100.00;102817.19;5043050;28;20116;-70
2022/11/26 11:02:56;;;;;;;20.80;7.68;;;;;;;7.74;100.00;102822.69;5043132;28;20147;-70
2022/11/26 11:05:22;;;;;;;24.27;7.95;;;;;;;7.82;100.00;102819.38;5042420;28;20506;-70
2022/11/26 11:07:49;;;;;;;19.13;6.38;;;;;;;7.87;100.00;102815.38;5042714;28;20112;-70
2022/11/26 11:10:18;;;;;;;22.85;6.05;;;;;;;7.83;100.00;102819.28;5042809;28;20053;-70
2022/11/26 11:12:49;;;;;;;18.38;7.40;;;;;;;7.84;100.00;102823.59;5042994;28;20029;-72
2022/11/26 11:15:21;;;;;;;17.58;6.20;;;;;;;7.87;100.00;102817.19;5042852;28;20071;-71
2022/11/26 11:17:55;;;;;;;20.77;6.85;;;;;;;7.87;100.00;102818.03;5040435;28;20052;-70